sensor_id;sensor_type;location;lat;lon;timestamp;pressure;altitude;pressure_sealevel;temperature;humidity
73671;BME280;61968;48.178;11.566;2022-09-25T00:00:48;95407.47;;;12.78;49.84
73671;BME280;61968;48.178;11.566;2022-09-25T00:03:17;95401.63;;;12.76;50.06
73671;BME280;61968;48.178;11.566;2022-09-25T00:05:44;95398.94;;;12.71;50.30
73671;BME280;61968;48.178;11.566;2022-09-25T00:08:12;95397.34;;;12.70;49.87
73671;BME280;61968;48.178;11.566;2022-09-25T00:10:39;95398.63;;;12.67;50.24
73671;BME280;61968;48.178;11.566;2022-09-25T00:13:06;95399.44;;;12.68;50.32
73671;BME280;61968;48.178;11.566;2022-09-25T00:15:33;95404.44;;;12.64;50.11
73671;BME280;61968;48.178;11.566;2022-09-25T00:17:59;95392.19;;;12.63;50.16
73671;BME280;61968;48.178;11.566;2022-09-25T00:20:27;95392.44;;;12.62;50.24
73671;BME280;61968;48.178;11.566;2022-09-25T00:22:53;95387.94;;;12.62;50.28
73671;BME280;61968;48.178;11.566;2022-09-25T00:25:19;95390.59;;;12.62;50.56
73671;BME280;61968;48.178;11.566;2022-09-25T00:27:50;95387.94;;;12.62;50.87
73671;BME280;61968;48.178;11.566;2022-09-25T00:30:21;95381.75;;;12.52;51.33
73671;BME280;61968;48.178;11.566;2022-09-25T00:32:48;95385.72;;;12.49;51.57
73671;BME280;61968;48.178;11.566;2022-09-25T00:35:17;95377.78;;;12.54;51.25
73671;BME280;61968;48.178;11.566;2022-09-25T00:37:45;95374.59;;;12.52;51.56
73671;BME280;61968;48.178;11.566;2022-09-25T00:40:12;95364.78;;;12.53;51.37
73671;BME280;61968;48.178;11.566;2022-09-25T00:42:39;95371.94;;;12.52;51.35
73671;BME280;61968;48.178;11.566;2022-09-25T00:45:08;95370.31;;;12.51;51.36
73671;BME280;61968;48.178;11.566;2022-09-25T00:47:47;95367.69;;;12.51;51.41
73671;BME280;61968;48.178;11.566;2022-09-25T00:50:32;95364.72;;;12.48;51.58
73671;BME280;61968;48.178;11.566;2022-09-25T00:53:07;95357.56;;;12.48;51.21
73671;BME280;61968;48.178;11.566;2022-09-25T00:55:37;95366.88;;;12.51;50.98
73671;BME280;61968;48.178;11.566;2022-09-25T00:58:05;95361.84;;;12.49;50.98
73671;BME280;61968;48.178;11.566;2022-09-25T01:00:32;95357.28;;;12.44;51.09
73671;BME280;61968;48.178;11.566;2022-09-25T01:03:00;95356.97;;;12.41;51.39
73671;BME280;61968;48.178;11.566;2022-09-25T01:05:31;95355.69;;;12.43;51.05
73671;BME280;61968;48.178;11.566;2022-09-25T01:08:00;95358.06;;;12.45;50.97
73671;BME280;61968;48.178;11.566;2022-09-25T01:10:28;95362.59;;;12.44;50.94
73671;BME280;61968;48.178;11.566;2022-09-25T01:12:56;95357.53;;;12.43;50.66
73671;BME280;61968;48.178;11.566;2022-09-25T01:15:30;95359.56;;;12.36;50.83
73671;BME280;61968;48.178;11.566;2022-09-25T01:18:03;95354.84;;;12.38;50.83
73671;BME280;61968;48.178;11.566;2022-09-25T01:20:45;95361.69;;;12.34;50.89
73671;BME280;61968;48.178;11.566;2022-09-25T01:23:21;95359.53;;;12.31;50.88
73671;BME280;61968;48.178;11.566;2022-09-25T01:26:11;95362.69;;;12.28;50.95
73671;BME280;61968;48.178;11.566;2022-09-25T01:28:54;95353.19;;;12.32;50.69
73671;BME280;61968;48.178;11.566;2022-09-25T01:31:26;95355.84;;;12.32;50.67
73671;BME280;61968;48.178;11.566;2022-09-25T01:33:59;95353.69;;;12.29;50.61
73671;BME280;61968;48.178;11.566;2022-09-25T01:36:33;95352.09;;;12.28;50.64
73671;BME280;61968;48.178;11.566;2022-09-25T01:39:06;95348.31;;;12.23;50.58
73671;BME280;61968;48.178;11.566;2022-09-25T01:41:41;95348.03;;;12.20;50.62
73671;BME280;61968;48.178;11.566;2022-09-25T01:44:15;95342.16;;;12.18;50.71
73671;BME280;61968;48.178;11.566;2022-09-25T01:46:50;95346.44;;;12.19;50.57
73671;BME280;61968;48.178;11.566;2022-09-25T01:49:24;95343.22;;;12.17;50.22
73671;BME280;61968;48.178;11.566;2022-09-25T01:51:53;95347.47;;;12.18;50.31
73671;BME280;61968;48.178;11.566;2022-09-25T01:54:23;95337.69;;;12.18;50.02
73671;BME280;61968;48.178;11.566;2022-09-25T01:56:55;95337.69;;;12.18;50.06
73671;BME280;61968;48.178;11.566;2022-09-25T01:59:28;95336.34;;;12.16;49.97
73671;BME280;61968;48.178;11.566;2022-09-25T02:02:00;95334.47;;;12.16;49.67
73671;BME280;61968;48.178;11.566;2022-09-25T02:04:32;95338.50;;;12.19;49.58
73671;BME280;61968;48.178;11.566;2022-09-25T02:07:03;95334.97;;;12.13;49.75
73671;BME280;61968;48.178;11.566;2022-09-25T02:09:35;95332.03;;;12.10;49.94
73671;BME280;61968;48.178;11.566;2022-09-25T02:12:06;95338.63;;;12.07;50.08
73671;BME280;61968;48.178;11.566;2022-09-25T02:14:39;95343.66;;;12.09;49.98
73671;BME280;61968;48.178;11.566;2022-09-25T02:17:11;95341.84;;;12.09;50.02
73671;BME280;61968;48.178;11.566;2022-09-25T02:19:59;95340.00;;;12.10;49.63
73671;BME280;61968;48.178;11.566;2022-09-25T02:22:52;95353.47;;;12.08;49.88
73671;BME280;61968;48.178;11.566;2022-09-25T02:25:26;95345.72;;;12.02;50.12
73671;BME280;61968;48.178;11.566;2022-09-25T02:27:57;95348.50;;;11.90;50.41
73671;BME280;61968;48.178;11.566;2022-09-25T02:30:25;95346.94;;;11.94;50.27
73671;BME280;61968;48.178;11.566;2022-09-25T02:32:52;95348.56;;;11.95;50.29
73671;BME280;61968;48.178;11.566;2022-09-25T02:35:22;95353.38;;;11.98;50.11
73671;BME280;61968;48.178;11.566;2022-09-25T02:37:49;95357.53;;;11.94;50.07
73671;BME280;61968;48.178;11.566;2022-09-25T02:40:15;95356.25;;;11.96;50.27
73671;BME280;61968;48.178;11.566;2022-09-25T02:42:48;95364.19;;;11.96;50.07
73671;BME280;61968;48.178;11.566;2022-09-25T02:45:24;95362.00;;;11.88;50.11
73671;BME280;61968;48.178;11.566;2022-09-25T02:48:03;95363.09;;;11.70;50.36
73671;BME280;61968;48.178;11.566;2022-09-25T02:50:37;95352.84;;;11.57;50.89
73671;BME280;61968;48.178;11.566;2022-09-25T02:53:13;95353.22;;;11.66;50.56
73671;BME280;61968;48.178;11.566;2022-09-25T02:55:45;95351.03;;;11.80;50.14
73671;BME280;61968;48.178;11.566;2022-09-25T02:58:16;95350.25;;;11.79;50.28
73671;BME280;61968;48.178;11.566;2022-09-25T03:00:46;95338.31;;;11.82;50.15
73671;BME280;61968;48.178;11.566;2022-09-25T03:03:18;95332.25;;;11.81;50.17
73671;BME280;61968;48.178;11.566;2022-09-25T03:05:46;95337.34;;;11.88;49.87
73671;BME280;61968;48.178;11.566;2022-09-25T03:08:14;95337.09;;;11.89;49.76
73671;BME280;61968;48.178;11.566;2022-09-25T03:10:59;95330.22;;;11.88;49.80
73671;BME280;61968;48.178;11.566;2022-09-25T03:13:26;95320.91;;;11.86;49.73
73671;BME280;61968;48.178;11.566;2022-09-25T03:15:58;95322.75;;;11.85;49.75
73671;BME280;61968;48.178;11.566;2022-09-25T03:18:28;95324.28;;;11.81;49.83
73671;BME280;61968;48.178;11.566;2022-09-25T03:20:55;95326.72;;;11.83;49.67
73671;BME280;61968;48.178;11.566;2022-09-25T03:23:21;95312.41;;;11.84;49.61
73671;BME280;61968;48.178;11.566;2022-09-25T03:25:48;95309.19;;;11.82;49.56
73671;BME280;61968;48.178;11.566;2022-09-25T03:28:15;95313.41;;;11.77;49.46
73671;BME280;61968;48.178;11.566;2022-09-25T03:30:41;95312.50;;;11.72;49.45
73671;BME280;61968;48.178;11.566;2022-09-25T03:33:10;95305.44;;;11.77;49.09
73671;BME280;61968;48.178;11.566;2022-09-25T03:35:38;95317.81;;;11.72;48.95
73671;BME280;61968;48.178;11.566;2022-09-25T03:38:05;95314.06;;;11.68;48.72
73671;BME280;61968;48.178;11.566;2022-09-25T03:40:32;95311.91;;;11.65;48.84
73671;BME280;61968;48.178;11.566;2022-09-25T03:42:59;95312.88;;;11.59;48.75
73671;BME280;61968;48.178;11.566;2022-09-25T03:45:26;95307.28;;;11.55;48.91
73671;BME280;61968;48.178;11.566;2022-09-25T03:47:53;95307.78;;;11.52;48.85
73671;BME280;61968;48.178;11.566;2022-09-25T03:50:19;95309.88;;;11.50;48.99
73671;BME280;61968;48.178;11.566;2022-09-25T03:52:47;95309.13;;;11.54;48.83
73671;BME280;61968;48.178;11.566;2022-09-25T03:55:14;95303.59;;;11.56;48.73
73671;BME280;61968;48.178;11.566;2022-09-25T03:57:41;95313.06;;;11.52;48.82
73671;BME280;61968;48.178;11.566;2022-09-25T04:00:08;95303.59;;;11.56;48.91
73671;BME280;61968;48.178;11.566;2022-09-25T04:02:34;95308.81;;;11.51;48.74
73671;BME280;61968;48.178;11.566;2022-09-25T04:05:01;95300.56;;;11.47;48.88
73671;BME280;61968;48.178;11.566;2022-09-25T04:07:28;95306.13;;;11.46;49.09
73671;BME280;61968;48.178;11.566;2022-09-25T04:09:56;95298.34;;;11.39;49.08
73671;BME280;61968;48.178;11.566;2022-09-25T04:12:22;95295.47;;;11.41;48.78
73671;BME280;61968;48.178;11.566;2022-09-25T04:14:49;95298.66;;;11.43;48.96
73671;BME280;61968;48.178;11.566;2022-09-25T04:17:15;95289.91;;;11.42;48.95
73671;BME280;61968;48.178;11.566;2022-09-25T04:19:42;95292.56;;;11.42;48.87
73671;BME280;61968;48.178;11.566;2022-09-25T04:22:09;95291.22;;;11.40;48.79
73671;BME280;61968;48.178;11.566;2022-09-25T04:24:35;95297.06;;;11.42;48.75
73671;BME280;61968;48.178;11.566;2022-09-25T04:27:15;95288.88;;;11.43;48.70
73671;BME280;61968;48.178;11.566;2022-09-25T04:29:43;95299.69;;;11.42;48.75
73671;BME280;61968;48.178;11.566;2022-09-25T04:32:10;95302.84;;;11.39;48.71
73671;BME280;61968;48.178;11.566;2022-09-25T04:34:54;95298.59;;;11.38;48.64
73671;BME280;61968;48.178;11.566;2022-09-25T04:37:20;95304.09;;;11.31;48.90
73671;BME280;61968;48.178;11.566;2022-09-25T04:39:47;95297.03;;;11.20;49.00
73671;BME280;61968;48.178;11.566;2022-09-25T04:42:15;95296.72;;;11.16;49.13
73671;BME280;61968;48.178;11.566;2022-09-25T04:44:42;95300.97;;;11.17;49.23
73671;BME280;61968;48.178;11.566;2022-09-25T04:47:08;95297.28;;;11.18;49.25
73671;BME280;61968;48.178;11.566;2022-09-25T04:49:34;95297.59;;;11.22;49.12
73671;BME280;61968;48.178;11.566;2022-09-25T04:52:01;95305.84;;;11.25;49.07
73671;BME280;61968;48.178;11.566;2022-09-25T04:54:28;95303.75;;;11.27;48.99
73671;BME280;61968;48.178;11.566;2022-09-25T04:56:54;95306.94;;;11.29;48.95
73671;BME280;61968;48.178;11.566;2022-09-25T04:59:23;95311.44;;;11.29;49.12
73671;BME280;61968;48.178;11.566;2022-09-25T05:01:49;95311.16;;;11.25;49.13
73671;BME280;61968;48.178;11.566;2022-09-25T05:04:16;95306.34;;;11.22;49.12
73671;BME280;61968;48.178;11.566;2022-09-25T05:06:43;95307.13;;;11.23;49.29
73671;BME280;61968;48.178;11.566;2022-09-25T05:09:09;95303.94;;;11.21;49.34
73671;BME280;61968;48.178;11.566;2022-09-25T05:11:36;95312.13;;;11.19;49.54
73671;BME280;61968;48.178;11.566;2022-09-25T05:14:02;95305.78;;;11.20;49.70
73671;BME280;61968;48.178;11.566;2022-09-25T05:16:30;95307.84;;;11.18;49.47
73671;BME280;61968;48.178;11.566;2022-09-25T05:18:57;95309.22;;;11.21;49.52
73671;BME280;61968;48.178;11.566;2022-09-25T05:21:24;95311.56;;;11.39;48.66
73671;BME280;61968;48.178;11.566;2022-09-25T05:23:50;95308.69;;;11.41;49.00
73671;BME280;61968;48.178;11.566;2022-09-25T05:26:16;95313.59;;;11.32;49.10
73671;BME280;61968;48.178;11.566;2022-09-25T05:28:43;95310.56;;;11.23;49.18
73671;BME280;61968;48.178;11.566;2022-09-25T05:31:10;95306.09;;;11.24;49.23
73671;BME280;61968;48.178;11.566;2022-09-25T05:33:37;95304.72;;;11.21;49.45
73671;BME280;61968;48.178;11.566;2022-09-25T05:36:05;95303.38;;;11.19;49.61
73671;BME280;61968;48.178;11.566;2022-09-25T05:38:34;95310.84;;;11.22;49.62
73671;BME280;61968;48.178;11.566;2022-09-25T05:41:01;95303.69;;;11.22;49.64
73671;BME280;61968;48.178;11.566;2022-09-25T05:43:29;95309.78;;;11.23;49.76
73671;BME280;61968;48.178;11.566;2022-09-25T05:45:56;95307.44;;;11.26;49.73
73671;BME280;61968;48.178;11.566;2022-09-25T05:48:23;95316.44;;;11.25;49.76
73671;BME280;61968;48.178;11.566;2022-09-25T05:50:51;95320.69;;;11.26;49.65
73671;BME280;61968;48.178;11.566;2022-09-25T05:53:18;95311.69;;;11.27;49.87
73671;BME280;61968;48.178;11.566;2022-09-25T05:55:48;95311.44;;;11.29;49.79
73671;BME280;61968;48.178;11.566;2022-09-25T05:58:15;95309.59;;;11.29;49.89
73671;BME280;61968;48.178;11.566;2022-09-25T06:00:42;95312.25;;;11.29;49.96
73671;BME280;61968;48.178;11.566;2022-09-25T06:03:08;95315.16;;;11.28;49.95
73671;BME280;61968;48.178;11.566;2022-09-25T06:05:36;95306.94;;;11.29;50.00
73671;BME280;61968;48.178;11.566;2022-09-25T06:08:04;95306.16;;;11.29;50.08
73671;BME280;61968;48.178;11.566;2022-09-25T06:10:30;95315.38;;;11.26;50.24
73671;BME280;61968;48.178;11.566;2022-09-25T06:12:57;95311.38;;;11.24;50.01
73671;BME280;61968;48.178;11.566;2022-09-25T06:15:24;95316.19;;;11.27;50.05
73671;BME280;61968;48.178;11.566;2022-09-25T06:17:52;95317.53;;;11.29;50.30
73671;BME280;61968;48.178;11.566;2022-09-25T06:20:18;95318.09;;;11.31;50.33
73671;BME280;61968;48.178;11.566;2022-09-25T06:22:50;95316.81;;;11.34;50.26
73671;BME280;61968;48.178;11.566;2022-09-25T06:25:18;95315.47;;;11.31;50.25
73671;BME280;61968;48.178;11.566;2022-09-25T06:27:46;95319.69;;;11.33;50.17
73671;BME280;61968;48.178;11.566;2022-09-25T06:30:12;95321.78;;;11.30;50.29
73671;BME280;61968;48.178;11.566;2022-09-25T06:32:39;95308.88;;;11.34;50.24
73671;BME280;61968;48.178;11.566;2022-09-25T06:35:06;95304.47;;;11.40;50.25
73671;BME280;61968;48.178;11.566;2022-09-25T06:37:32;95310.28;;;11.42;50.34
73671;BME280;61968;48.178;11.566;2022-09-25T06:39:59;95312.44;;;11.45;50.23
73671;BME280;61968;48.178;11.566;2022-09-25T06:42:28;95314.06;;;11.46;50.28
73671;BME280;61968;48.178;11.566;2022-09-25T06:44:54;95311.41;;;11.46;50.46
73671;BME280;61968;48.178;11.566;2022-09-25T06:47:21;95314.06;;;11.46;50.47
73671;BME280;61968;48.178;11.566;2022-09-25T06:49:47;95318.03;;;11.48;50.52
73671;BME280;61968;48.178;11.566;2022-09-25T06:52:14;95319.41;;;11.51;50.42
73671;BME280;61968;48.178;11.566;2022-09-25T06:54:40;95316.75;;;11.51;50.51
73671;BME280;61968;48.178;11.566;2022-09-25T06:57:07;95315.22;;;11.55;50.44
73671;BME280;61968;48.178;11.566;2022-09-25T06:59:35;95305.19;;;11.57;50.37
73671;BME280;61968;48.178;11.566;2022-09-25T07:02:02;95315.53;;;11.59;50.71
73671;BME280;61968;48.178;11.566;2022-09-25T07:04:49;95310.78;;;11.61;50.69
73671;BME280;61968;48.178;11.566;2022-09-25T07:07:16;95310.28;;;11.64;50.37
73671;BME280;61968;48.178;11.566;2022-09-25T07:09:43;95310.91;;;11.71;50.64
73671;BME280;61968;48.178;11.566;2022-09-25T07:12:10;95319.19;;;11.74;50.73
73671;BME280;61968;48.178;11.566;2022-09-25T07:14:38;95313.56;;;11.71;50.45
73671;BME280;61968;48.178;11.566;2022-09-25T07:17:06;95317.00;;;11.71;50.56
73671;BME280;61968;48.178;11.566;2022-09-25T07:19:32;95316.91;;;11.61;50.68
73671;BME280;61968;48.178;11.566;2022-09-25T07:21:59;95323.78;;;11.62;50.50
73671;BME280;61968;48.178;11.566;2022-09-25T07:24:25;95324.25;;;11.76;53.57
73671;BME280;61968;48.178;11.566;2022-09-25T07:26:52;95317.78;;;12.16;50.31
73671;BME280;61968;48.178;11.566;2022-09-25T07:29:18;95320.06;;;12.07;50.24
73671;BME280;61968;48.178;11.566;2022-09-25T07:31:46;95322.09;;;12.00;50.54
73671;BME280;61968;48.178;11.566;2022-09-25T07:34:13;95318.44;;;12.01;50.84
73671;BME280;61968;48.178;11.566;2022-09-25T07:36:40;95325.88;;;12.04;50.89
73671;BME280;61968;48.178;11.566;2022-09-25T07:39:07;95320.56;;;12.04;50.90
73671;BME280;61968;48.178;11.566;2022-09-25T07:41:34;95319.22;;;12.02;50.31
73671;BME280;61968;48.178;11.566;2022-09-25T07:44:02;95324.00;;;11.77;51.05
73671;BME280;61968;48.178;11.566;2022-09-25T07:46:29;95320.06;;;11.19;52.65
73671;BME280;61968;48.178;11.566;2022-09-25T07:48:57;95327.31;;;11.46;52.70
73671;BME280;61968;48.178;11.566;2022-09-25T07:51:25;95330.97;;;11.67;51.98
73671;BME280;61968;48.178;11.566;2022-09-25T07:53:51;95331.25;;;11.87;51.64
73671;BME280;61968;48.178;11.566;2022-09-25T07:56:18;95327.19;;;11.80;51.88
73671;BME280;61968;48.178;11.566;2022-09-25T07:58:45;95332.06;;;11.27;52.43
73671;BME280;61968;48.178;11.566;2022-09-25T08:01:12;95319.69;;;11.33;52.61
73671;BME280;61968;48.178;11.566;2022-09-25T08:03:38;95323.31;;;11.26;52.36
73671;BME280;61968;48.178;11.566;2022-09-25T08:06:07;95320.00;;;11.36;51.86
73671;BME280;61968;48.178;11.566;2022-09-25T08:08:36;95325.25;;;11.31;52.49
73671;BME280;61968;48.178;11.566;2022-09-25T08:11:04;95329.09;;;11.62;51.98
73671;BME280;61968;48.178;11.566;2022-09-25T08:13:32;95323.50;;;11.81;51.64
73671;BME280;61968;48.178;11.566;2022-09-25T08:16:00;95324.84;;;11.61;51.51
73671;BME280;61968;48.178;11.566;2022-09-25T08:18:27;95326.63;;;11.77;51.39
73671;BME280;61968;48.178;11.566;2022-09-25T08:20:59;95327.44;;;11.78;51.47
73671;BME280;61968;48.178;11.566;2022-09-25T08:23:27;95331.22;;;11.65;51.59
73671;BME280;61968;48.178;11.566;2022-09-25T08:25:53;95325.59;;;11.79;51.40
73671;BME280;61968;48.178;11.566;2022-09-25T08:28:20;95316.09;;;11.83;51.50
73671;BME280;61968;48.178;11.566;2022-09-25T08:30:47;95323.09;;;11.94;51.88
73671;BME280;61968;48.178;11.566;2022-09-25T08:33:13;95326.19;;;12.08;51.33
73671;BME280;61968;48.178;11.566;2022-09-25T08:35:40;95327.59;;;12.15;51.12
73671;BME280;61968;48.178;11.566;2022-09-25T08:38:08;95332.34;;;12.13;50.84
73671;BME280;61968;48.178;11.566;2022-09-25T08:40:39;95327.31;;;12.17;50.66
73671;BME280;61968;48.178;11.566;2022-09-25T08:43:17;95333.69;;;12.16;50.70
73671;BME280;61968;48.178;11.566;2022-09-25T08:45:46;95325.25;;;11.97;50.96
73671;BME280;61968;48.178;11.566;2022-09-25T08:48:31;95326.88;;;11.98;51.28
73671;BME280;61968;48.178;11.566;2022-09-25T08:51:17;95331.47;;;11.64;51.84
73671;BME280;61968;48.178;11.566;2022-09-25T08:53:44;95332.72;;;11.78;51.72
73671;BME280;61968;48.178;11.566;2022-09-25T08:56:13;95337.59;;;11.64;51.73
73671;BME280;61968;48.178;11.566;2022-09-25T08:58:44;95334.09;;;11.81;51.59
73671;BME280;61968;48.178;11.566;2022-09-25T09:01:13;95334.34;;;11.79;51.63
73671;BME280;61968;48.178;11.566;2022-09-25T09:03:45;95329.66;;;11.86;51.58
73671;BME280;61968;48.178;11.566;2022-09-25T09:06:15;95330.56;;;11.97;51.00
73671;BME280;61968;48.178;11.566;2022-09-25T09:08:45;95337.28;;;12.05;50.93
73671;BME280;61968;48.178;11.566;2022-09-25T09:11:19;95329.13;;;12.11;50.77
73671;BME280;61968;48.178;11.566;2022-09-25T09:13:50;95332.38;;;12.18;50.53
73671;BME280;61968;48.178;11.566;2022-09-25T09:16:25;95320.16;;;12.17;50.43
73671;BME280;61968;48.178;11.566;2022-09-25T09:18:54;95318.63;;;12.21;50.36
73671;BME280;61968;48.178;11.566;2022-09-25T09:21:24;95317.00;;;12.15;50.58
73671;BME280;61968;48.178;11.566;2022-09-25T09:23:58;95319.13;;;12.18;50.33
73671;BME280;61968;48.178;11.566;2022-09-25T09:26:40;95318.47;;;12.33;50.33
73671;BME280;61968;48.178;11.566;2022-09-25T09:29:18;95318.94;;;12.25;50.08
73671;BME280;61968;48.178;11.566;2022-09-25T09:31:57;95318.22;;;12.35;49.89
73671;BME280;61968;48.178;11.566;2022-09-25T09:34:51;95323.97;;;12.27;50.28
73671;BME280;61968;48.178;11.566;2022-09-25T09:37:29;95319.22;;;12.29;50.35
73671;BME280;61968;48.178;11.566;2022-09-25T09:40:09;95316.63;;;12.34;50.04
73671;BME280;61968;48.178;11.566;2022-09-25T09:42:45;95312.34;;;12.33;50.08
73671;BME280;61968;48.178;11.566;2022-09-25T09:45:19;95312.53;;;12.53;49.66
73671;BME280;61968;48.178;11.566;2022-09-25T09:47:55;95306.03;;;12.66;50.04
73671;BME280;61968;48.178;11.566;2022-09-25T09:50:34;95291.53;;;12.74;49.52
73671;BME280;61968;48.178;11.566;2022-09-25T09:53:09;95299.81;;;12.82;48.93
73671;BME280;61968;48.178;11.566;2022-09-25T09:55:42;95306.97;;;12.82;49.00
73671;BME280;61968;48.178;11.566;2022-09-25T09:58:16;95309.06;;;12.80;49.14
73671;BME280;61968;48.178;11.566;2022-09-25T10:00:45;95311.22;;;12.83;49.02
73671;BME280;61968;48.178;11.566;2022-09-25T10:03:16;95305.91;;;12.83;49.35
73671;BME280;61968;48.178;11.566;2022-09-25T10:05:45;95303.06;;;12.95;49.03
73671;BME280;61968;48.178;11.566;2022-09-25T10:08:12;95303.31;;;12.93;49.46
73671;BME280;61968;48.178;11.566;2022-09-25T10:10:40;95309.41;;;12.94;48.84
73671;BME280;61968;48.178;11.566;2022-09-25T10:13:16;95304.63;;;12.90;48.90
73671;BME280;61968;48.178;11.566;2022-09-25T10:15:48;95301.47;;;12.94;48.65
73671;BME280;61968;48.178;11.566;2022-09-25T10:18:16;95297.53;;;13.01;48.47
73671;BME280;61968;48.178;11.566;2022-09-25T10:20:46;95296.03;;;13.16;49.17
73671;BME280;61968;48.178;11.566;2022-09-25T10:23:26;95287.69;;;13.44;48.05
73671;BME280;61968;48.178;11.566;2022-09-25T10:25:55;95293.66;;;13.67;48.28
73671;BME280;61968;48.178;11.566;2022-09-25T10:28:27;95288.09;;;13.73;48.08
73671;BME280;61968;48.178;11.566;2022-09-25T10:30:55;95293.41;;;13.73;48.15
73671;BME280;61968;48.178;11.566;2022-09-25T10:33:24;95284.69;;;13.88;48.01
73671;BME280;61968;48.178;11.566;2022-09-25T10:35:51;95286.28;;;13.89;48.28
73671;BME280;61968;48.178;11.566;2022-09-25T10:38:31;95284.41;;;13.90;47.47
73671;BME280;61968;48.178;11.566;2022-09-25T10:41:01;95282.56;;;13.85;47.33
73671;BME280;61968;48.178;11.566;2022-09-25T10:43:29;95291.06;;;13.92;47.67
73671;BME280;61968;48.178;11.566;2022-09-25T10:46:11;95287.88;;;13.85;46.95
73671;BME280;61968;48.178;11.566;2022-09-25T10:48:39;95284.66;;;13.83;46.92
73671;BME280;61968;48.178;11.566;2022-09-25T10:51:24;95290.47;;;13.75;46.15
73671;BME280;61968;48.178;11.566;2022-09-25T10:53:52;95288.34;;;13.67;46.58
73671;BME280;61968;48.178;11.566;2022-09-25T10:56:21;95296.59;;;13.70;47.12
73671;BME280;61968;48.178;11.566;2022-09-25T10:58:55;95282.78;;;13.84;47.03
73671;BME280;61968;48.178;11.566;2022-09-25T11:01:29;95278.59;;;14.08;46.25
73671;BME280;61968;48.178;11.566;2022-09-25T11:03:57;95276.75;;;14.14;45.96
73671;BME280;61968;48.178;11.566;2022-09-25T11:06:26;95282.34;;;14.17;45.72
73671;BME280;61968;48.178;11.566;2022-09-25T11:09:02;95280.47;;;14.13;44.57
73671;BME280;61968;48.178;11.566;2022-09-25T11:11:30;95286.84;;;14.07;45.18
73671;BME280;61968;48.178;11.566;2022-09-25T11:13:59;95284.97;;;14.02;45.31
73671;BME280;61968;48.178;11.566;2022-09-25T11:16:45;95285.50;;;13.99;45.75
73671;BME280;61968;48.178;11.566;2022-09-25T11:19:14;95286.59;;;14.03;45.68
73671;BME280;61968;48.178;11.566;2022-09-25T11:21:48;95283.03;;;13.67;46.09
73671;BME280;61968;48.178;11.566;2022-09-25T11:24:21;95270.31;;;13.79;46.10
73671;BME280;61968;48.178;11.566;2022-09-25T11:26:54;95261.28;;;13.80;45.58
73671;BME280;61968;48.178;11.566;2022-09-25T11:29:37;95254.88;;;13.71;45.63
73671;BME280;61968;48.178;11.566;2022-09-25T11:32:12;95260.50;;;13.95;44.89
73671;BME280;61968;48.178;11.566;2022-09-25T11:34:56;95254.16;;;14.06;44.61
73671;BME280;61968;48.178;11.566;2022-09-25T11:37:29;95248.84;;;14.16;44.44
73671;BME280;61968;48.178;11.566;2022-09-25T11:40:04;95253.91;;;14.13;44.59
73671;BME280;61968;48.178;11.566;2022-09-25T11:42:57;95250.44;;;14.12;45.15
73671;BME280;61968;48.178;11.566;2022-09-25T11:45:29;95250.69;;;14.11;45.40
73671;BME280;61968;48.178;11.566;2022-09-25T11:48:05;95250.13;;;13.93;45.74
73671;BME280;61968;48.178;11.566;2022-09-25T11:50:40;95251.72;;;13.89;46.25
73671;BME280;61968;48.178;11.566;2022-09-25T11:53:18;95249.06;;;13.99;45.58
73671;BME280;61968;48.178;11.566;2022-09-25T11:56:02;95248.50;;;13.72;46.18
73671;BME280;61968;48.178;11.566;2022-09-25T11:59:01;95249.59;;;13.86;46.30
73671;BME280;61968;48.178;11.566;2022-09-25T12:01:35;95248.53;;;14.02;46.20
73671;BME280;61968;48.178;11.566;2022-09-25T12:04:27;95244.34;;;14.22;46.29
73671;BME280;61968;48.178;11.566;2022-09-25T12:09:55;95233.69;;;14.32;45.77
73671;BME280;61968;48.178;11.566;2022-09-25T12:12:32;95239.53;;;14.19;46.01
73671;BME280;61968;48.178;11.566;2022-09-25T12:15:04;95235.28;;;14.08;45.72
73671;BME280;61968;48.178;11.566;2022-09-25T12:17:51;95231.50;;;13.83;46.61
73671;BME280;61968;48.178;11.566;2022-09-25T12:20:26;95226.69;;;13.65;46.97
73671;BME280;61968;48.178;11.566;2022-09-25T12:23:06;95229.91;;;13.77;46.84
73671;BME280;61968;48.178;11.566;2022-09-25T12:25:51;95224.59;;;13.77;46.75
73671;BME280;61968;48.178;11.566;2022-09-25T12:28:27;95225.16;;;14.15;46.19
73671;BME280;61968;48.178;11.566;2022-09-25T12:31:05;95226.81;;;14.36;45.83
73671;BME280;61968;48.178;11.566;2022-09-25T12:33:41;95224.13;;;14.41;44.95
73671;BME280;61968;48.178;11.566;2022-09-25T12:36:17;95226.22;;;14.09;45.81
73671;BME280;61968;48.178;11.566;2022-09-25T12:38:49;95220.91;;;14.03;45.40
73671;BME280;61968;48.178;11.566;2022-09-25T12:41:25;95220.91;;;14.14;45.39
73671;BME280;61968;48.178;11.566;2022-09-25T12:43:59;95216.41;;;14.30;45.10
73671;BME280;61968;48.178;11.566;2022-09-25T12:46:31;95219.31;;;13.82;45.02
73671;BME280;61968;48.178;11.566;2022-09-25T12:49:04;95220.88;;;13.83;45.49
73671;BME280;61968;48.178;11.566;2022-09-25T12:51:38;95214.22;;;13.80;45.54
73671;BME280;61968;48.178;11.566;2022-09-25T12:54:13;95217.13;;;13.58;45.71
73671;BME280;61968;48.178;11.566;2022-09-25T12:56:44;95212.00;;;13.47;46.03
73671;BME280;61968;48.178;11.566;2022-09-25T12:59:18;95212.19;;;13.25;46.52
73671;BME280;61968;48.178;11.566;2022-09-25T13:01:53;95210.00;;;13.11;47.03
73671;BME280;61968;48.178;11.566;2022-09-25T13:04:36;95211.69;;;13.28;46.93
73671;BME280;61968;48.178;11.566;2022-09-25T13:07:12;95218.03;;;13.22;46.74
73671;BME280;61968;48.178;11.566;2022-09-25T13:09:42;95220.03;;;12.99;47.26
73671;BME280;61968;48.178;11.566;2022-09-25T13:12:16;95212.94;;;13.15;46.91